sensor_id;sensor_type;location;lat;lon;timestamp;P1;durP1;ratioP1;P2;durP2;ratioP2
13485;SDS011;6815;59.336;17.998;2024-01-25T00:00:27;1.40;;;1.30;;
13485;SDS011;6815;59.336;17.998;2024-01-25T00:02:52;1.50;;;1.33;;
13485;SDS011;6815;59.336;17.998;2024-01-25T00:05:18;1.40;;;1.30;;
13485;SDS011;6815;59.336;17.998;2024-01-25T00:07:49;1.50;;;1.33;;
13485;SDS011;6815;59.336;17.998;2024-01-25T00:10:18;1.87;;;1.60;;
13485;SDS011;6815;59.336;17.998;2024-01-25T00:12:44;1.70;;;1.40;;
13485;SDS011;6815;59.336;17.998;2024-01-25T00:15:09;1.70;;;1.60;;
13485;SDS011;6815;59.336;17.998;2024-01-25T00:17:36;1.77;;;1.27;;
13485;SDS011;6815;59.336;17.998;2024-01-25T00:20:02;0.97;;;0.87;;
13485;SDS011;6815;59.336;17.998;2024-01-25T00:22:28;1.47;;;1.10;;
13485;SDS011;6815;59.336;17.998;2024-01-25T00:24:53;1.30;;;1.20;;
13485;SDS011;6815;59.336;17.998;2024-01-25T00:27:19;1.30;;;1.20;;
13485;SDS011;6815;59.336;17.998;2024-01-25T00:29:44;0.80;;;0.80;;
13485;SDS011;6815;59.336;17.998;2024-01-25T00:32:10;1.10;;;1.00;;
13485;SDS011;6815;59.336;17.998;2024-01-25T00:34:35;1.00;;;1.00;;
13485;SDS011;6815;59.336;17.998;2024-01-25T00:37:01;1.17;;;1.10;;
13485;SDS011;6815;59.336;17.998;2024-01-25T00:39:27;1.13;;;0.83;;
13485;SDS011;6815;59.336;17.998;2024-01-25T00:41:53;1.17;;;1.07;;
13485;SDS011;6815;59.336;17.998;2024-01-25T00:44:27;1.00;;;0.83;;
13485;SDS011;6815;59.336;17.998;2024-01-25T00:46:53;0.80;;;0.80;;
13485;SDS011;6815;59.336;17.998;2024-01-25T00:49:19;1.00;;;0.90;;
13485;SDS011;6815;59.336;17.998;2024-01-25T00:51:46;1.40;;;0.80;;
13485;SDS011;6815;59.336;17.998;2024-01-25T00:54:13;1.00;;;0.90;;
13485;SDS011;6815;59.336;17.998;2024-01-25T00:56:40;1.30;;;0.93;;
13485;SDS011;6815;59.336;17.998;2024-01-25T00:59:06;1.47;;;0.80;;
13485;SDS011;6815;59.336;17.998;2024-01-25T01:01:31;0.70;;;0.70;;
13485;SDS011;6815;59.336;17.998;2024-01-25T01:03:58;1.07;;;0.97;;
13485;SDS011;6815;59.336;17.998;2024-01-25T01:06:24;0.90;;;0.80;;
13485;SDS011;6815;59.336;17.998;2024-01-25T01:08:50;1.23;;;1.10;;
13485;SDS011;6815;59.336;17.998;2024-01-25T01:11:16;1.00;;;0.90;;
13485;SDS011;6815;59.336;17.998;2024-01-25T01:13:42;0.87;;;0.87;;
13485;SDS011;6815;59.336;17.998;2024-01-25T01:16:07;1.30;;;1.20;;
13485;SDS011;6815;59.336;17.998;2024-01-25T01:18:33;1.30;;;1.20;;
13485;SDS011;6815;59.336;17.998;2024-01-25T01:20:59;1.83;;;1.10;;
13485;SDS011;6815;59.336;17.998;2024-01-25T01:23:24;1.13;;;1.03;;
13485;SDS011;6815;59.336;17.998;2024-01-25T01:25:50;1.73;;;1.20;;
13485;SDS011;6815;59.336;17.998;2024-01-25T01:28:16;1.23;;;1.13;;
13485;SDS011;6815;59.336;17.998;2024-01-25T01:30:41;1.30;;;1.20;;
13485;SDS011;6815;59.336;17.998;2024-01-25T01:33:10;1.40;;;1.17;;
13485;SDS011;6815;59.336;17.998;2024-01-25T01:35:35;1.20;;;1.10;;
13485;SDS011;6815;59.336;17.998;2024-01-25T01:38:01;1.40;;;1.30;;
13485;SDS011;6815;59.336;17.998;2024-01-25T01:40:26;1.70;;;1.33;;
13485;SDS011;6815;59.336;17.998;2024-01-25T01:42:58;2.30;;;1.50;;
13485;SDS011;6815;59.336;17.998;2024-01-25T01:45:24;1.73;;;1.33;;
13485;SDS011;6815;59.336;17.998;2024-01-25T01:47:50;1.63;;;1.10;;
13485;SDS011;6815;59.336;17.998;2024-01-25T01:50:15;1.30;;;1.20;;
13485;SDS011;6815;59.336;17.998;2024-01-25T01:52:41;1.67;;;1.30;;
13485;SDS011;6815;59.336;17.998;2024-01-25T01:55:07;1.40;;;1.27;;
13485;SDS011;6815;59.336;17.998;2024-01-25T01:57:34;1.93;;;1.40;;
13485;SDS011;6815;59.336;17.998;2024-01-25T02:00:00;2.10;;;1.50;;
13485;SDS011;6815;59.336;17.998;2024-01-25T02:02:29;2.43;;;1.50;;
13485;SDS011;6815;59.336;17.998;2024-01-25T02:04:55;1.97;;;1.40;;
13485;SDS011;6815;59.336;17.998;2024-01-25T02:07:20;1.87;;;1.60;;
13485;SDS011;6815;59.336;17.998;2024-01-25T02:09:46;1.80;;;1.70;;
13485;SDS011;6815;59.336;17.998;2024-01-25T02:12:14;1.37;;;1.20;;
13485;SDS011;6815;59.336;17.998;2024-01-25T02:14:42;2.27;;;1.73;;
13485;SDS011;6815;59.336;17.998;2024-01-25T02:17:07;3.20;;;1.90;;
13485;SDS011;6815;59.336;17.998;2024-01-25T02:19:33;3.10;;;1.80;;
13485;SDS011;6815;59.336;17.998;2024-01-25T02:21:58;2.23;;;1.90;;
13485;SDS011;6815;59.336;17.998;2024-01-25T02:24:24;2.03;;;1.80;;
13485;SDS011;6815;59.336;17.998;2024-01-25T02:26:49;3.20;;;1.87;;
13485;SDS011;6815;59.336;17.998;2024-01-25T02:29:15;1.63;;;1.53;;
13485;SDS011;6815;59.336;17.998;2024-01-25T02:31:40;2.87;;;1.30;;
13485;SDS011;6815;59.336;17.998;2024-01-25T02:34:06;2.73;;;1.60;;
13485;SDS011;6815;59.336;17.998;2024-01-25T02:36:31;2.27;;;1.50;;
13485;SDS011;6815;59.336;17.998;2024-01-25T02:38:57;3.83;;;1.80;;
13485;SDS011;6815;59.336;17.998;2024-01-25T02:41:23;1.63;;;1.30;;
13485;SDS011;6815;59.336;17.998;2024-01-25T02:43:48;1.80;;;1.40;;
13485;SDS011;6815;59.336;17.998;2024-01-25T02:46:13;1.70;;;1.30;;
13485;SDS011;6815;59.336;17.998;2024-01-25T02:48:39;2.53;;;1.50;;
13485;SDS011;6815;59.336;17.998;2024-01-25T02:51:04;1.90;;;1.30;;
13485;SDS011;6815;59.336;17.998;2024-01-25T02:53:30;2.77;;;1.47;;
13485;SDS011;6815;59.336;17.998;2024-01-25T02:55:55;2.03;;;1.23;;
13485;SDS011;6815;59.336;17.998;2024-01-25T02:58:21;3.57;;;1.53;;
13485;SDS011;6815;59.336;17.998;2024-01-25T03:00:47;2.13;;;1.37;;
13485;SDS011;6815;59.336;17.998;2024-01-25T03:03:12;1.37;;;1.20;;
13485;SDS011;6815;59.336;17.998;2024-01-25T03:05:38;2.33;;;1.20;;
13485;SDS011;6815;59.336;17.998;2024-01-25T03:08:04;2.00;;;1.20;;
13485;SDS011;6815;59.336;17.998;2024-01-25T03:10:29;2.17;;;1.07;;
13485;SDS011;6815;59.336;17.998;2024-01-25T03:12:55;1.90;;;1.40;;
13485;SDS011;6815;59.336;17.998;2024-01-25T03:15:20;3.23;;;1.07;;
13485;SDS011;6815;59.336;17.998;2024-01-25T03:17:46;1.27;;;0.80;;
13485;SDS011;6815;59.336;17.998;2024-01-25T03:20:11;1.67;;;0.97;;
13485;SDS011;6815;59.336;17.998;2024-01-25T03:22:37;2.23;;;1.03;;
13485;SDS011;6815;59.336;17.998;2024-01-25T03:25:03;2.20;;;0.97;;
13485;SDS011;6815;59.336;17.998;2024-01-25T03:27:28;1.07;;;0.73;;
13485;SDS011;6815;59.336;17.998;2024-01-25T03:29:54;3.37;;;0.97;;
13485;SDS011;6815;59.336;17.998;2024-01-25T03:32:19;1.13;;;0.73;;
13485;SDS011;6815;59.336;17.998;2024-01-25T03:34:45;1.57;;;0.80;;
13485;SDS011;6815;59.336;17.998;2024-01-25T03:37:10;1.80;;;0.90;;
13485;SDS011;6815;59.336;17.998;2024-01-25T03:39:36;0.93;;;0.73;;
13485;SDS011;6815;59.336;17.998;2024-01-25T03:42:01;0.80;;;0.70;;
13485;SDS011;6815;59.336;17.998;2024-01-25T03:44:27;0.83;;;0.83;;
13485;SDS011;6815;59.336;17.998;2024-01-25T03:46:52;2.03;;;0.80;;
13485;SDS011;6815;59.336;17.998;2024-01-25T03:49:18;3.33;;;0.90;;
13485;SDS011;6815;59.336;17.998;2024-01-25T03:51:44;1.23;;;0.90;;
13485;SDS011;6815;59.336;17.998;2024-01-25T03:54:10;1.60;;;0.80;;
13485;SDS011;6815;59.336;17.998;2024-01-25T03:56:35;1.20;;;0.90;;
13485;SDS011;6815;59.336;17.998;2024-01-25T03:59:01;1.43;;;0.70;;
13485;SDS011;6815;59.336;17.998;2024-01-25T04:01:26;1.90;;;0.90;;
13485;SDS011;6815;59.336;17.998;2024-01-25T04:03:52;2.23;;;0.80;;
13485;SDS011;6815;59.336;17.998;2024-01-25T04:06:17;2.73;;;0.90;;
13485;SDS011;6815;59.336;17.998;2024-01-25T04:08:42;0.77;;;0.77;;
13485;SDS011;6815;59.336;17.998;2024-01-25T04:11:08;2.43;;;0.80;;
13485;SDS011;6815;59.336;17.998;2024-01-25T04:13:34;0.90;;;0.77;;
13485;SDS011;6815;59.336;17.998;2024-01-25T04:16:00;1.00;;;0.90;;
13485;SDS011;6815;59.336;17.998;2024-01-25T04:18:26;0.90;;;0.90;;
13485;SDS011;6815;59.336;17.998;2024-01-25T04:20:51;1.10;;;1.00;;
13485;SDS011;6815;59.336;17.998;2024-01-25T04:23:17;2.00;;;1.13;;
13485;SDS011;6815;59.336;17.998;2024-01-25T04:25:43;1.10;;;0.97;;
13485;SDS011;6815;59.336;17.998;2024-01-25T04:28:08;1.17;;;0.93;;
13485;SDS011;6815;59.336;17.998;2024-01-25T04:30:33;1.73;;;1.20;;
13485;SDS011;6815;59.336;17.998;2024-01-25T04:32:59;1.43;;;1.20;;
13485;SDS011;6815;59.336;17.998;2024-01-25T04:35:24;2.53;;;1.50;;
13485;SDS011;6815;59.336;17.998;2024-01-25T04:37:50;2.50;;;1.40;;
13485;SDS011;6815;59.336;17.998;2024-01-25T04:40:15;1.33;;;1.20;;
13485;SDS011;6815;59.336;17.998;2024-01-25T04:42:41;2.07;;;1.40;;
13485;SDS011;6815;59.336;17.998;2024-01-25T04:45:07;2.37;;;1.40;;
13485;SDS011;6815;59.336;17.998;2024-01-25T04:47:32;2.90;;;1.30;;
13485;SDS011;6815;59.336;17.998;2024-01-25T04:49:58;2.20;;;1.30;;
13485;SDS011;6815;59.336;17.998;2024-01-25T04:52:23;3.97;;;1.70;;
13485;SDS011;6815;59.336;17.998;2024-01-25T04:54:50;2.23;;;1.30;;
13485;SDS011;6815;59.336;17.998;2024-01-25T04:57:15;2.57;;;1.30;;
13485;SDS011;6815;59.336;17.998;2024-01-25T04:59:41;3.07;;;1.33;;
13485;SDS011;6815;59.336;17.998;2024-01-25T05:02:06;1.77;;;1.10;;
13485;SDS011;6815;59.336;17.998;2024-01-25T05:04:32;2.37;;;1.40;;
13485;SDS011;6815;59.336;17.998;2024-01-25T05:06:58;1.37;;;1.10;;
13485;SDS011;6815;59.336;17.998;2024-01-25T05:09:23;4.17;;;1.50;;
13485;SDS011;6815;59.336;17.998;2024-01-25T05:11:49;1.57;;;1.27;;
13485;SDS011;6815;59.336;17.998;2024-01-25T05:14:14;2.93;;;1.13;;
13485;SDS011;6815;59.336;17.998;2024-01-25T05:16:40;2.17;;;1.63;;
13485;SDS011;6815;59.336;17.998;2024-01-25T05:19:05;2.53;;;1.50;;
13485;SDS011;6815;59.336;17.998;2024-01-25T05:21:31;1.73;;;1.30;;
13485;SDS011;6815;59.336;17.998;2024-01-25T05:23:56;1.90;;;1.33;;
13485;SDS011;6815;59.336;17.998;2024-01-25T05:26:22;1.70;;;1.40;;
13485;SDS011;6815;59.336;17.998;2024-01-25T05:28:47;1.97;;;1.53;;
13485;SDS011;6815;59.336;17.998;2024-01-25T05:31:13;1.30;;;1.20;;
13485;SDS011;6815;59.336;17.998;2024-01-25T05:33:39;2.00;;;1.63;;
13485;SDS011;6815;59.336;17.998;2024-01-25T05:36:05;3.50;;;1.60;;
13485;SDS011;6815;59.336;17.998;2024-01-25T05:38:33;2.73;;;1.50;;
13485;SDS011;6815;59.336;17.998;2024-01-25T05:40:59;3.73;;;1.67;;
13485;SDS011;6815;59.336;17.998;2024-01-25T05:43:24;2.80;;;1.40;;
13485;SDS011;6815;59.336;17.998;2024-01-25T05:45:50;1.60;;;1.50;;
13485;SDS011;6815;59.336;17.998;2024-01-25T05:48:15;2.50;;;1.50;;
13485;SDS011;6815;59.336;17.998;2024-01-25T05:50:41;1.87;;;1.50;;
13485;SDS011;6815;59.336;17.998;2024-01-25T05:53:06;1.67;;;1.40;;
13485;SDS011;6815;59.336;17.998;2024-01-25T05:55:32;2.10;;;1.53;;
13485;SDS011;6815;59.336;17.998;2024-01-25T05:57:57;1.57;;;1.47;;
13485;SDS011;6815;59.336;17.998;2024-01-25T06:00:23;1.97;;;1.73;;
13485;SDS011;6815;59.336;17.998;2024-01-25T06:02:48;2.63;;;1.90;;
13485;SDS011;6815;59.336;17.998;2024-01-25T06:05:14;2.37;;;1.70;;
13485;SDS011;6815;59.336;17.998;2024-01-25T06:07:39;2.97;;;1.93;;
13485;SDS011;6815;59.336;17.998;2024-01-25T06:10:06;3.30;;;1.90;;
13485;SDS011;6815;59.336;17.998;2024-01-25T06:12:33;2.77;;;1.93;;
13485;SDS011;6815;59.336;17.998;2024-01-25T06:14:59;1.70;;;1.60;;
13485;SDS011;6815;59.336;17.998;2024-01-25T06:17:24;2.17;;;1.63;;
13485;SDS011;6815;59.336;17.998;2024-01-25T06:19:49;2.60;;;1.53;;
13485;SDS011;6815;59.336;17.998;2024-01-25T06:22:15;2.30;;;1.60;;
13485;SDS011;6815;59.336;17.998;2024-01-25T06:24:42;4.30;;;1.60;;
13485;SDS011;6815;59.336;17.998;2024-01-25T06:27:09;2.53;;;1.60;;
13485;SDS011;6815;59.336;17.998;2024-01-25T06:29:35;2.77;;;1.60;;
13485;SDS011;6815;59.336;17.998;2024-01-25T06:32:00;1.80;;;1.57;;
13485;SDS011;6815;59.336;17.998;2024-01-25T06:34:26;1.70;;;1.60;;
13485;SDS011;6815;59.336;17.998;2024-01-25T06:36:51;2.03;;;1.37;;
13485;SDS011;6815;59.336;17.998;2024-01-25T06:39:17;2.30;;;1.60;;
13485;SDS011;6815;59.336;17.998;2024-01-25T06:41:42;2.80;;;1.90;;
13485;SDS011;6815;59.336;17.998;2024-01-25T06:44:08;1.67;;;1.40;;
13485;SDS011;6815;59.336;17.998;2024-01-25T06:46:33;2.07;;;1.60;;
13485;SDS011;6815;59.336;17.998;2024-01-25T06:48:59;2.57;;;1.40;;
13485;SDS011;6815;59.336;17.998;2024-01-25T06:51:24;2.37;;;1.50;;
13485;SDS011;6815;59.336;17.998;2024-01-25T06:53:50;1.70;;;1.20;;
13485;SDS011;6815;59.336;17.998;2024-01-25T06:56:16;1.40;;;1.20;;
13485;SDS011;6815;59.336;17.998;2024-01-25T06:58:41;1.80;;;1.40;;
13485;SDS011;6815;59.336;17.998;2024-01-25T07:01:07;1.53;;;1.33;;
13485;SDS011;6815;59.336;17.998;2024-01-25T07:03:32;2.33;;;1.27;;
13485;SDS011;6815;59.336;17.998;2024-01-25T07:05:58;3.27;;;1.50;;
13485;SDS011;6815;59.336;17.998;2024-01-25T07:08:24;2.57;;;1.53;;
13485;SDS011;6815;59.336;17.998;2024-01-25T07:10:49;2.27;;;1.30;;
13485;SDS011;6815;59.336;17.998;2024-01-25T07:13:15;6.87;;;1.20;;
13485;SDS011;6815;59.336;17.998;2024-01-25T07:15:41;1.83;;;1.10;;
13485;SDS011;6815;59.336;17.998;2024-01-25T07:18:07;3.53;;;1.30;;
13485;SDS011;6815;59.336;17.998;2024-01-25T07:20:32;2.53;;;1.30;;
13485;SDS011;6815;59.336;17.998;2024-01-25T07:22:58;2.60;;;1.13;;
13485;SDS011;6815;59.336;17.998;2024-01-25T07:25:23;1.93;;;0.83;;
13485;SDS011;6815;59.336;17.998;2024-01-25T07:27:49;1.20;;;0.90;;
13485;SDS011;6815;59.336;17.998;2024-01-25T07:30:15;0.70;;;0.70;;
13485;SDS011;6815;59.336;17.998;2024-01-25T07:32:41;1.57;;;0.90;;
13485;SDS011;6815;59.336;17.998;2024-01-25T07:35:10;0.83;;;0.63;;
13485;SDS011;6815;59.336;17.998;2024-01-25T07:37:36;0.97;;;0.60;;
13485;SDS011;6815;59.336;17.998;2024-01-25T07:40:02;0.90;;;0.67;;
13485;SDS011;6815;59.336;17.998;2024-01-25T07:42:31;2.10;;;0.60;;
13485;SDS011;6815;59.336;17.998;2024-01-25T07:44:57;0.77;;;0.60;;
13485;SDS011;6815;59.336;17.998;2024-01-25T07:47:22;0.67;;;0.60;;
13485;SDS011;6815;59.336;17.998;2024-01-25T07:49:48;1.43;;;0.80;;
13485;SDS011;6815;59.336;17.998;2024-01-25T07:52:14;1.97;;;1.10;;
13485;SDS011;6815;59.336;17.998;2024-01-25T07:54:39;1.00;;;0.90;;
13485;SDS011;6815;59.336;17.998;2024-01-25T07:57:05;2.33;;;1.03;;
13485;SDS011;6815;59.336;17.998;2024-01-25T07:59:30;1.60;;;1.00;;
13485;SDS011;6815;59.336;17.998;2024-01-25T08:01:56;1.80;;;0.93;;
13485;SDS011;6815;59.336;17.998;2024-01-25T08:04:21;2.63;;;1.20;;
13485;SDS011;6815;59.336;17.998;2024-01-25T08:06:47;1.70;;;1.00;;
13485;SDS011;6815;59.336;17.998;2024-01-25T08:09:12;2.50;;;0.90;;
13485;SDS011;6815;59.336;17.998;2024-01-25T08:11:38;1.40;;;1.00;;
13485;SDS011;6815;59.336;17.998;2024-01-25T08:14:03;2.03;;;1.20;;
13485;SDS011;6815;59.336;17.998;2024-01-25T08:16:29;1.30;;;1.00;;
13485;SDS011;6815;59.336;17.998;2024-01-25T08:18:54;1.07;;;0.90;;
13485;SDS011;6815;59.336;17.998;2024-01-25T08:21:20;2.93;;;1.30;;
13485;SDS011;6815;59.336;17.998;2024-01-25T08:23:46;1.23;;;0.97;;
13485;SDS011;6815;59.336;17.998;2024-01-25T08:26:12;1.80;;;1.03;;
13485;SDS011;6815;59.336;17.998;2024-01-25T08:28:41;1.50;;;0.70;;
13485;SDS011;6815;59.336;17.998;2024-01-25T08:31:10;2.53;;;1.10;;
13485;SDS011;6815;59.336;17.998;2024-01-25T08:33:36;1.03;;;0.90;;
13485;SDS011;6815;59.336;17.998;2024-01-25T08:36:06;1.13;;;0.80;;
13485;SDS011;6815;59.336;17.998;2024-01-25T08:38:32;2.20;;;1.10;;
13485;SDS011;6815;59.336;17.998;2024-01-25T08:40:58;1.47;;;0.93;;
13485;SDS011;6815;59.336;17.998;2024-01-25T08:43:23;1.80;;;1.13;;
13485;SDS011;6815;59.336;17.998;2024-01-25T08:45:49;1.53;;;1.20;;
13485;SDS011;6815;59.336;17.998;2024-01-25T08:48:14;1.90;;;1.30;;
13485;SDS011;6815;59.336;17.998;2024-01-25T08:50:40;2.70;;;1.60;;
13485;SDS011;6815;59.336;17.998;2024-01-25T08:53:05;3.80;;;1.43;;
13485;SDS011;6815;59.336;17.998;2024-01-25T08:55:31;2.60;;;1.17;;
13485;SDS011;6815;59.336;17.998;2024-01-25T08:57:57;1.90;;;1.43;;
13485;SDS011;6815;59.336;17.998;2024-01-25T09:00:22;2.43;;;1.03;;
13485;SDS011;6815;59.336;17.998;2024-01-25T09:02:48;1.30;;;1.20;;
13485;SDS011;6815;59.336;17.998;2024-01-25T09:05:14;2.67;;;1.27;;
13485;SDS011;6815;59.336;17.998;2024-01-25T09:07:39;1.20;;;1.10;;
13485;SDS011;6815;59.336;17.998;2024-01-25T09:10:06;1.87;;;1.57;;
13485;SDS011;6815;59.336;17.998;2024-01-25T09:12:32;2.63;;;1.30;;
13485;SDS011;6815;59.336;17.998;2024-01-25T09:14:59;1.40;;;1.30;;
13485;SDS011;6815;59.336;17.998;2024-01-25T09:17:25;2.73;;;1.50;;
13485;SDS011;6815;59.336;17.998;2024-01-25T09:19:51;2.43;;;1.50;;
13485;SDS011;6815;59.336;17.998;2024-01-25T09:22:17;2.90;;;1.50;;
13485;SDS011;6815;59.336;17.998;2024-01-25T09:24:44;2.70;;;1.67;;
13485;SDS011;6815;59.336;17.998;2024-01-25T09:27:13;2.47;;;1.63;;
13485;SDS011;6815;59.336;17.998;2024-01-25T09:29:41;3.40;;;1.80;;
13485;SDS011;6815;59.336;17.998;2024-01-25T09:32:07;2.60;;;1.60;;
13485;SDS011;6815;59.336;17.998;2024-01-25T09:34:34;3.03;;;1.83;;
13485;SDS011;6815;59.336;17.998;2024-01-25T09:37:00;3.57;;;1.80;;
13485;SDS011;6815;59.336;17.998;2024-01-25T09:39:25;2.57;;;1.73;;
13485;SDS011;6815;59.336;17.998;2024-01-25T09:41:51;2.80;;;2.00;;
13485;SDS011;6815;59.336;17.998;2024-01-25T09:44:16;2.83;;;1.90;;
13485;SDS011;6815;59.336;17.998;2024-01-25T09:46:42;3.00;;;2.27;;
13485;SDS011;6815;59.336;17.998;2024-01-25T09:49:09;2.43;;;1.80;;
13485;SDS011;6815;59.336;17.998;2024-01-25T09:51:39;3.60;;;2.20;;
13485;SDS011;6815;59.336;17.998;2024-01-25T09:54:06;3.27;;;2.10;;
13485;SDS011;6815;59.336;17.998;2024-01-25T09:56:32;4.50;;;2.40;;
13485;SDS011;6815;59.336;17.998;2024-01-25T09:58:58;2.53;;;2.20;;
13485;SDS011;6815;59.336;17.998;2024-01-25T10:01:25;4.53;;;2.47;;
13485;SDS011;6815;59.336;17.998;2024-01-25T10:03:51;5.60;;;2.93;;
13485;SDS011;6815;59.336;17.998;2024-01-25T10:06:17;4.97;;;3.27;;
13485;SDS011;6815;59.336;17.998;2024-01-25T10:08:43;4.20;;;2.80;;
13485;SDS011;6815;59.336;17.998;2024-01-25T10:11:09;6.30;;;3.00;;
13485;SDS011;6815;59.336;17.998;2024-01-25T10:13:43;3.60;;;2.50;;
13485;SDS011;6815;59.336;17.998;2024-01-25T10:16:16;4.60;;;2.60;;
13485;SDS011;6815;59.336;17.998;2024-01-25T10:18:45;4.70;;;3.03;;
13485;SDS011;6815;59.336;17.998;2024-01-25T10:21:12;6.40;;;3.07;;
13485;SDS011;6815;59.336;17.998;2024-01-25T10:23:38;4.70;;;3.30;;
13485;SDS011;6815;59.336;17.998;2024-01-25T10:26:05;5.50;;;3.50;;
13485;SDS011;6815;59.336;17.998;2024-01-25T10:28:30;5.23;;;3.00;;
13485;SDS011;6815;59.336;17.998;2024-01-25T10:31:00;4.43;;;2.90;;
13485;SDS011;6815;59.336;17.998;2024-01-25T10:33:27;3.80;;;3.03;;
13485;SDS011;6815;59.336;17.998;2024-01-25T10:35:56;3.23;;;2.90;;
13485;SDS011;6815;59.336;17.998;2024-01-25T10:38:31;3.77;;;2.90;;
13485;SDS011;6815;59.336;17.998;2024-01-25T10:41:00;4.97;;;3.63;;
13485;SDS011;6815;59.336;17.998;2024-01-25T10:43:26;4.63;;;3.17;;
13485;SDS011;6815;59.336;17.998;2024-01-25T10:45:52;4.47;;;3.50;;
13485;SDS011;6815;59.336;17.998;2024-01-25T10:48:21;7.03;;;3.70;;
13485;SDS011;6815;59.336;17.998;2024-01-25T10:50:47;5.67;;;3.70;;
13485;SDS011;6815;59.336;17.998;2024-01-25T10:53:13;5.73;;;4.17;;
13485;SDS011;6815;59.336;17.998;2024-01-25T10:55:40;5.10;;;3.13;;
13485;SDS011;6815;59.336;17.998;2024-01-25T10:58:07;8.33;;;3.80;;
13485;SDS011;6815;59.336;17.998;2024-01-25T11:00:35;5.07;;;3.17;;
13485;SDS011;6815;59.336;17.998;2024-01-25T11:03:01;4.90;;;3.20;;
13485;SDS011;6815;59.336;17.998;2024-01-25T11:05:29;6.97;;;3.23;;
13485;SDS011;6815;59.336;17.998;2024-01-25T11:07:55;3.87;;;3.20;;
13485;SDS011;6815;59.336;17.998;2024-01-25T11:10:22;3.47;;;2.93;;
13485;SDS011;6815;59.336;17.998;2024-01-25T11:12:50;3.90;;;3.30;;
13485;SDS011;6815;59.336;17.998;2024-01-25T11:15:35;4.17;;;3.20;;
13485;SDS011;6815;59.336;17.998;2024-01-25T11:18:02;3.93;;;3.17;;
13485;SDS011;6815;59.336;17.998;2024-01-25T11:20:32;6.37;;;3.00;;
13485;SDS011;6815;59.336;17.998;2024-01-25T11:23:00;4.53;;;3.00;;
13485;SDS011;6815;59.336;17.998;2024-01-25T11:25:30;4.37;;;2.83;;
13485;SDS011;6815;59.336;17.998;2024-01-25T11:27:57;5.43;;;2.87;;
13485;SDS011;6815;59.336;17.998;2024-01-25T11:30:23;4.60;;;2.77;;
13485;SDS011;6815;59.336;17.998;2024-01-25T11:32:49;4.23;;;2.70;;
13485;SDS011;6815;59.336;17.998;2024-01-25T11:35:15;2.73;;;2.30;;
13485;SDS011;6815;59.336;17.998;2024-01-25T11:37:47;3.63;;;2.40;;
13485;SDS011;6815;59.336;17.998;2024-01-25T11:40:14;5.37;;;2.50;;
13485;SDS011;6815;59.336;17.998;2024-01-25T11:42:44;3.67;;;2.43;;
13485;SDS011;6815;59.336;17.998;2024-01-25T11:45:12;4.47;;;2.80;;
13485;SDS011;6815;59.336;17.998;2024-01-25T11:47:39;6.23;;;2.70;;
13485;SDS011;6815;59.336;17.998;2024-01-25T11:50:06;3.70;;;2.57;;
13485;SDS011;6815;59.336;17.998;2024-01-25T11:52:34;3.57;;;2.50;;
13485;SDS011;6815;59.336;17.998;2024-01-25T11:55:06;3.53;;;2.33;;
13485;SDS011;6815;59.336;17.998;2024-01-25T11:57:39;2.47;;;2.00;;
13485;SDS011;6815;59.336;17.998;2024-01-25T12:00:06;3.50;;;2.47;;
13485;SDS011;6815;59.336;17.998;2024-01-25T12:02:37;3.40;;;1.90;;
13485;SDS011;6815;59.336;17.998;2024-01-25T12:05:03;4.80;;;2.20;;
13485;SDS011;6815;59.336;17.998;2024-01-25T12:07:30;3.87;;;2.17;;
13485;SDS011;6815;59.336;17.998;2024-01-25T12:10:03;3.27;;;2.37;;
13485;SDS011;6815;59.336;17.998;2024-01-25T12:12:30;2.77;;;2.03;;
13485;SDS011;6815;59.336;17.998;2024-01-25T12:14:59;2.93;;;1.80;;
13485;SDS011;6815;59.336;17.998;2024-01-25T12:17:28;3.17;;;2.03;;
13485;SDS011;6815;59.336;17.998;2024-01-25T12:19:58;3.37;;;1.80;;
13485;SDS011;6815;59.336;17.998;2024-01-25T12:22:27;2.30;;;1.53;;
13485;SDS011;6815;59.336;17.998;2024-01-25T12:24:56;4.67;;;2.10;;
13485;SDS011;6815;59.336;17.998;2024-01-25T12:27:22;2.37;;;1.90;;
13485;SDS011;6815;59.336;17.998;2024-01-25T12:29:53;3.57;;;1.80;;
13485;SDS011;6815;59.336;17.998;2024-01-25T12:32:19;2.13;;;1.63;;
13485;SDS011;6815;59.336;17.998;2024-01-25T12:34:58;3.13;;;1.90;;
13485;SDS011;6815;59.336;17.998;2024-01-25T12:37:28;2.90;;;1.80;;
13485;SDS011;6815;59.336;17.998;2024-01-25T12:39:54;2.50;;;1.63;;
13485;SDS011;6815;59.336;17.998;2024-01-25T12:42:20;2.00;;;1.10;;
13485;SDS011;6815;59.336;17.998;2024-01-25T12:44:46;1.07;;;0.90;;
13485;SDS011;6815;59.336;17.998;2024-01-25T12:47:12;2.43;;;1.23;;
13485;SDS011;6815;59.336;17.998;2024-01-25T12:49:41;1.23;;;1.00;;
13485;SDS011;6815;59.336;17.998;2024-01-25T12:52:11;2.27;;;0.83;;
13485;SDS011;6815;59.336;17.998;2024-01-25T12:54:37;1.60;;;1.30;;
13485;SDS011;6815;59.336;17.998;2024-01-25T12:57:03;2.63;;;1.10;;
13485;SDS011;6815;59.336;17.998;2024-01-25T12:59:29;3.60;;;0.90;;
13485;SDS011;6815;59.336;17.998;2024-01-25T13:01:55;1.53;;;0.80;;
13485;SDS011;6815;59.336;17.998;2024-01-25T13:04:21;2.97;;;0.90;;
13485;SDS011;6815;59.336;17.998;2024-01-25T13:06:47;1.80;;;1.10;;
13485;SDS011;6815;59.336;17.998;2024-01-25T13:09:13;1.93;;;0.97;;
13485;SDS011;6815;59.336;17.998;2024-01-25T13:11:40;1.37;;;0.93;;
13485;SDS011;6815;59.336;17.998;2024-01-25T13:14:06;0.60;;;0.60;;
13485;SDS011;6815;59.336;17.998;2024-01-25T13:16:32;0.70;;;0.70;;
13485;SDS011;6815;59.336;17.998;2024-01-25T13:18:57;0.73;;;0.60;;
13485;SDS011;6815;59.336;17.998;2024-01-25T13:21:23;0.73;;;0.70;;
13485;SDS011;6815;59.336;17.998;2024-01-25T13:23:48;0.80;;;0.60;;
13485;SDS011;6815;59.336;17.998;2024-01-25T13:26:14;1.43;;;0.70;;
13485;SDS011;6815;59.336;17.998;2024-01-25T13:28:39;1.17;;;0.60;;
13485;SDS011;6815;59.336;17.998;2024-01-25T13:31:05;2.47;;;0.60;;
13485;SDS011;6815;59.336;17.998;2024-01-25T13:33:30;0.67;;;0.60;;
13485;SDS011;6815;59.336;17.998;2024-01-25T13:35:56;0.63;;;0.60;;
13485;SDS011;6815;59.336;17.998;2024-01-25T13:38:21;1.23;;;0.73;;
13485;SDS011;6815;59.336;17.998;2024-01-25T13:40:47;1.13;;;0.50;;
13485;SDS011;6815;59.336;17.998;2024-01-25T13:43:12;1.13;;;0.70;;
13485;SDS011;6815;59.336;17.998;2024-01-25T13:45:38;0.83;;;0.60;;
13485;SDS011;6815;59.336;17.998;2024-01-25T13:48:03;0.60;;;0.60;;
13485;SDS011;6815;59.336;17.998;2024-01-25T13:50:29;1.87;;;0.67;;
13485;SDS011;6815;59.336;17.998;2024-01-25T13:52:54;1.37;;;0.70;;
13485;SDS011;6815;59.336;17.998;2024-01-25T13:55:20;1.83;;;0.90;;
13485;SDS011;6815;59.336;17.998;2024-01-25T13:57:45;1.37;;;0.80;;
13485;SDS011;6815;59.336;17.998;2024-01-25T14:00:11;1.20;;;0.83;;
13485;SDS011;6815;59.336;17.998;2024-01-25T14:02:39;2.70;;;0.83;;
13485;SDS011;6815;59.336;17.998;2024-01-25T14:05:07;1.30;;;0.70;;
13485;SDS011;6815;59.336;17.998;2024-01-25T14:07:33;1.30;;;0.80;;
13485;SDS011;6815;59.336;17.998;2024-01-25T14:09:58;2.50;;;0.87;;
13485;SDS011;6815;59.336;17.998;2024-01-25T14:12:24;1.97;;;0.80;;
13485;SDS011;6815;59.336;17.998;2024-01-25T14:14:49;2.10;;;0.80;;
13485;SDS011;6815;59.336;17.998;2024-01-25T14:17:14;1.37;;;1.00;;
13485;SDS011;6815;59.336;17.998;2024-01-25T14:19:40;1.60;;;1.00;;
13485;SDS011;6815;59.336;17.998;2024-01-25T14:22:06;1.30;;;0.83;;
13485;SDS011;6815;59.336;17.998;2024-01-25T14:24:31;1.70;;;0.90;;
13485;SDS011;6815;59.336;17.998;2024-01-25T14:26:57;1.10;;;0.90;;
13485;SDS011;6815;59.336;17.998;2024-01-25T14:29:23;0.87;;;0.87;;
13485;SDS011;6815;59.336;17.998;2024-01-25T14:31:48;0.60;;;0.60;;
13485;SDS011;6815;59.336;17.998;2024-01-25T14:34:14;3.07;;;0.80;;
13485;SDS011;6815;59.336;17.998;2024-01-25T14:36:39;1.23;;;1.00;;
13485;SDS011;6815;59.336;17.998;2024-01-25T14:39:04;1.33;;;1.00;;
13485;SDS011;6815;59.336;17.998;2024-01-25T14:41:31;1.20;;;0.97;;